Time;durP1;ratioP1;P1;durP2;ratioP2;P2;SDS_P1;SDS_P2;PMS_P1;PMS_P2;Temp;Humidity;BMP_temperature;BMP_pressure;BME280_temperature;BME280_humidity;BME280_pressure;Samples;Min_cycle;Max_cycle;Signal;HPM_P1;HPM_P2
2024/02/28 05:02:37;;;;;;;5.60;4.95;;;3.40;99.90;;;;;;4907840;29;20230;-70
2024/02/28 05:05:04;;;;;;;11.15;7.18;;;3.40;99.90;;;;;;4915060;29;20218;-71
2024/02/28 05:07:31;;;;;;;4.65;3.72;;;3.30;99.90;;;;;;4910340;29;20214;-68
2024/02/28 05:09:58;;;;;;;7.65;5.15;;;3.30;99.90;;;;;;4916052;29;20209;-70
2024/02/28 05:12:24;;;;;;;9.82;5.60;;;3.30;99.90;;;;;;4915431;29;20233;-69
2024/02/28 05:14:51;;;;;;;11.05;6.50;;;3.30;99.90;;;;;;4914882;29;20209;-70
2024/02/28 05:17:18;;;;;;;8.85;6.70;;;3.30;99.90;;;;;;4916928;29;20329;-69
2024/02/28 05:19:46;;;;;;;7.78;5.00;;;3.30;99.90;;;;;;4916681;29;20672;-69
2024/02/28 05:22:13;;;;;;;6.25;4.80;;;3.30;99.90;;;;;;4916315;29;20291;-70
2024/02/28 05:24:43;;;;;;;13.18;5.65;;;3.20;99.90;;;;;;4915843;29;20214;-70
2024/02/28 05:27:10;;;;;;;7.60;4.75;;;3.20;99.90;;;;;;4916623;29;20670;-70
2024/02/28 05:29:36;;;;;;;7.65;5.50;;;3.10;99.90;;;;;;4915873;29;20240;-69
2024/02/28 05:32:03;;;;;;;9.23;5.07;;;3.10;99.90;;;;;;4911100;29;20234;-68
2024/02/28 05:34:30;;;;;;;9.30;6.13;;;3.10;99.90;;;;;;4916154;29;20219;-69
2024/02/28 05:37:00;;;;;;;5.32;4.10;;;3.10;99.90;;;;;;4916126;29;20606;-69
2024/02/28 05:39:28;;;;;;;11.25;6.70;;;3.10;99.90;;;;;;4913791;29;20216;-69
2024/02/28 05:41:55;;;;;;;8.40;5.13;;;3.10;99.90;;;;;;4910421;29;20234;-70
2024/02/28 05:44:22;;;;;;;7.68;4.40;;;3.10;99.90;;;;;;4916007;29;20228;-71
2024/02/28 05:46:49;;;;;;;8.93;4.28;;;3.10;99.90;;;;;;4914437;29;20218;-69
2024/02/28 05:49:16;;;;;;;7.20;5.32;;;3.10;99.90;;;;;;4915981;29;20296;-71
2024/02/28 05:51:42;;;;;;;6.57;4.20;;;3.20;99.90;;;;;;4913275;29;20631;-70
2024/02/28 05:54:11;;;;;;;16.45;5.53;;;3.10;99.90;;;;;;4916684;29;20209;-69
2024/02/28 05:56:38;;;;;;;7.47;6.32;;;3.10;99.90;;;;;;4915683;29;20576;-71
2024/02/28 05:59:04;;;;;;;8.18;4.95;;;3.00;99.90;;;;;;4916782;29;20220;-70
2024/02/28 06:01:31;;;;;;;5.20;4.70;;;3.10;99.90;;;;;;4918520;29;20260;-70
2024/02/28 06:03:58;;;;;;;8.88;5.65;;;3.10;99.90;;;;;;4914053;29;20229;-70
2024/02/28 06:06:25;;;;;;;6.78;4.05;;;3.00;99.90;;;;;;4917550;29;20235;-71
2024/02/28 06:08:52;;;;;;;5.63;4.25;;;3.10;99.90;;;;;;4912400;29;20208;-70
2024/02/28 06:11:20;;;;;;;6.43;4.90;;;3.00;99.90;;;;;;4915680;29;20709;-71
2024/02/28 06:13:49;;;;;;;9.35;4.55;;;3.10;99.90;;;;;;4917838;29;20672;-71
2024/02/28 06:16:17;;;;;;;5.55;5.05;;;3.20;99.90;;;;;;4916694;29;20237;-70
2024/02/28 06:18:44;;;;;;;7.60;5.22;;;3.20;99.90;;;;;;4913000;29;20672;-70
2024/02/28 06:21:11;;;;;;;10.52;6.78;;;3.10;99.90;;;;;;4914764;29;20238;-70
2024/02/28 06:23:38;;;;;;;5.40;4.70;;;3.10;99.90;;;;;;4912970;29;20253;-70
2024/02/28 06:26:04;;;;;;;7.47;5.63;;;3.10;99.90;;;;;;4913420;29;20223;-71
2024/02/28 06:28:33;;;;;;;6.63;3.75;;;3.00;99.90;;;;;;4903407;29;20216;-72
2024/02/28 06:30:58;;;;;;;8.55;6.10;;;2.90;99.90;;;;;;4911614;29;20227;-71
2024/02/28 06:33:25;;;;;;;6.03;5.40;;;2.90;99.90;;;;;;4912804;29;20207;-71
2024/02/28 06:35:52;;;;;;;9.98;4.75;;;2.80;99.90;;;;;;4915167;29;20206;-71
2024/02/28 06:38:19;;;;;;;7.88;4.20;;;2.80;99.90;;;;;;4914524;29;20219;-72
2024/02/28 06:40:45;;;;;;;7.60;4.45;;;2.90;99.90;;;;;;4911330;29;20240;-71
2024/02/28 06:43:12;;;;;;;11.52;6.70;;;2.90;99.90;;;;;;4912999;29;20548;-71
2024/02/28 06:45:40;;;;;;;80.78;37.38;;;2.80;99.90;;;;;;4914157;29;20231;-72
2024/02/28 06:48:08;;;;;;;18.48;12.70;;;2.90;99.90;;;;;;4913522;29;20561;-72
2024/02/28 06:50:35;;;;;;;13.68;9.98;;;2.90;99.90;;;;;;4912882;29;20303;-72
2024/02/28 06:53:02;;;;;;;19.52;10.25;;;2.90;99.90;;;;;;4909321;29;20220;-72
2024/02/28 06:55:28;;;;;;;33.17;16.98;;;2.90;99.90;;;;;;4911923;29;20251;-71
2024/02/28 06:57:56;;;;;;;16.08;8.07;;;2.90;99.90;;;;;;4912333;29;20218;-71
2024/02/28 07:00:23;;;;;;;38.25;19.15;;;2.90;99.90;;;;;;4908514;29;20216;-71
2024/02/28 07:02:51;;;;;;;11.98;7.22;;;2.80;99.90;;;;;;4911039;29;20237;-71
2024/02/28 07:05:18;;;;;;;17.98;11.85;;;2.90;99.90;;;;;;4913919;29;20605;-71
2024/02/28 07:07:45;;;;;;;24.90;15.25;;;2.90;99.90;;;;;;4911171;29;20217;-71
2024/02/28 07:10:12;;;;;;;9.63;8.60;;;3.00;99.90;;;;;;4909984;29;20216;-71
2024/02/28 07:12:38;;;;;;;12.30;9.02;;;3.10;99.90;;;;;;4908062;29;20227;-71
2024/02/28 07:15:06;;;;;;;10.52;8.18;;;3.10;99.90;;;;;;4913891;29;20229;-71
2024/02/28 07:17:33;;;;;;;6.43;5.82;;;3.20;99.90;;;;;;4913365;29;20209;-71
2024/02/28 07:20:01;;;;;;;7.30;4.63;;;3.30;99.90;;;;;;4910329;29;20212;-71
2024/02/28 07:22:27;;;;;;;8.20;6.55;;;3.30;99.90;;;;;;4910573;29;20230;-71
2024/02/28 07:24:54;;;;;;;15.93;7.35;;;3.30;99.90;;;;;;4912143;29;20312;-72
2024/02/28 07:27:23;;;;;;;8.90;6.78;;;3.40;99.90;;;;;;4908856;29;22197;-70
2024/02/28 07:29:50;;;;;;;9.57;5.18;;;3.40;99.90;;;;;;4908334;29;20210;-70
2024/02/28 07:32:16;;;;;;;7.28;6.57;;;3.40;99.90;;;;;;4909141;29;20252;-70
2024/02/28 07:34:43;;;;;;;6.85;6.13;;;3.40;99.90;;;;;;4913557;29;20202;-70
2024/02/28 07:37:12;;;;;;;10.32;4.72;;;3.50;99.90;;;;;;4913902;29;20561;-71
2024/02/28 07:39:38;;;;;;;7.25;6.00;;;3.50;99.90;;;;;;4911861;29;20214;-65
2024/02/28 07:42:05;;;;;;;6.85;5.70;;;3.50;99.90;;;;;;4910193;29;20606;-66
2024/02/28 07:44:32;;;;;;;9.07;6.53;;;3.60;99.90;;;;;;4909216;29;20224;-65
2024/02/28 07:46:59;;;;;;;10.15;5.22;;;3.60;99.90;;;;;;4913815;29;20208;-65
2024/02/28 07:49:26;;;;;;;6.60;4.63;;;3.70;99.90;;;;;;4911816;29;20233;-66
2024/02/28 07:51:53;;;;;;;8.82;5.65;;;3.70;99.90;;;;;;4912999;29;20234;-65
2024/02/28 07:54:21;;;;;;;7.32;5.25;;;3.70;99.90;;;;;;4913019;29;20210;-65
2024/02/28 07:56:48;;;;;;;7.03;4.90;;;3.70;99.90;;;;;;4912374;29;20218;-65
2024/02/28 07:59:14;;;;;;;5.90;4.43;;;3.80;99.90;;;;;;4911905;29;20225;-65
2024/02/28 08:01:41;;;;;;;9.90;4.68;;;3.80;99.90;;;;;;4905123;29;20614;-65
2024/02/28 08:04:08;;;;;;;9.10;6.47;;;3.80;99.90;;;;;;4907305;29;20245;-65
2024/02/28 08:06:35;;;;;;;12.85;9.02;;;3.90;99.90;;;;;;4911925;29;20297;-66
2024/02/28 08:09:04;;;;;;;7.68;5.28;;;3.80;99.90;;;;;;4908728;29;20218;-66
2024/02/28 08:11:32;;;;;;;8.27;5.47;;;3.90;99.90;;;;;;4910376;29;20322;-65
2024/02/28 08:13:58;;;;;;;6.35;5.35;;;3.90;99.90;;;;;;4912615;29;20961;-65
2024/02/28 08:16:25;;;;;;;7.40;4.60;;;4.00;99.90;;;;;;4912283;29;20310;-65
2024/02/28 08:18:52;;;;;;;9.88;6.88;;;4.10;99.90;;;;;;4913662;29;20686;-65
2024/02/28 08:21:19;;;;;;;7.25;5.50;;;4.20;99.90;;;;;;4911731;29;20241;-65
2024/02/28 08:23:47;;;;;;;9.45;8.05;;;4.30;99.90;;;;;;4911379;29;20223;-65
2024/02/28 08:26:14;;;;;;;11.10;9.40;;;4.30;99.90;;;;;;4912530;29;20226;-65
2024/02/28 08:28:42;;;;;;;16.52;9.73;;;4.40;99.90;;;;;;4913746;29;20237;-65
2024/02/28 08:31:08;;;;;;;13.70;8.68;;;4.40;99.90;;;;;;4909930;29;20250;-65
2024/02/28 08:33:35;;;;;;;11.25;7.65;;;4.50;99.90;;;;;;4909463;29;20305;-65
2024/02/28 08:36:02;;;;;;;9.32;6.43;;;4.50;99.90;;;;;;4912950;29;20225;-65
2024/02/28 08:38:29;;;;;;;12.88;5.93;;;4.60;99.90;;;;;;4910602;29;20686;-64
2024/02/28 08:40:55;;;;;;;10.77;8.05;;;4.60;99.90;;;;;;4909913;29;20710;-65
2024/02/28 08:43:22;;;;;;;12.35;6.75;;;4.70;99.90;;;;;;4909633;29;20237;-71
2024/02/28 08:45:51;;;;;;;18.20;10.75;;;4.70;99.90;;;;;;4911607;29;20685;-65
2024/02/28 08:48:18;;;;;;;13.45;7.88;;;4.70;99.90;;;;;;4906398;29;20215;-65
2024/02/28 08:50:45;;;;;;;18.15;10.65;;;4.70;99.90;;;;;;4910915;29;20612;-64
2024/02/28 08:53:11;;;;;;;9.52;8.45;;;4.70;99.90;;;;;;4911926;29;20211;-64
2024/02/28 08:55:38;;;;;;;13.30;7.82;;;4.80;99.90;;;;;;4907806;29;20214;-65
2024/02/28 08:58:05;;;;;;;11.77;8.13;;;4.80;99.90;;;;;;4912806;29;20211;-65
2024/02/28 09:00:32;;;;;;;16.90;8.80;;;4.90;99.90;;;;;;4911229;29;20238;-65
2024/02/28 09:03:00;;;;;;;19.80;6.72;;;4.90;99.90;;;;;;4911397;29;20262;-66
2024/02/28 09:05:26;;;;;;;14.02;8.65;;;4.90;99.90;;;;;;4909828;29;20238;-65
2024/02/28 09:07:54;;;;;;;15.48;7.15;;;5.00;99.90;;;;;;4912065;29;20233;-66
2024/02/28 09:10:24;;;;;;;16.80;9.68;;;5.10;99.90;;;;;;4913681;29;20207;-65
2024/02/28 09:12:50;;;;;;;16.52;7.60;;;5.20;99.90;;;;;;4915095;29;20258;-65
2024/02/28 09:15:17;;;;;;;15.10;8.50;;;5.20;99.90;;;;;;4913643;29;20199;-65
2024/02/28 09:17:44;;;;;;;13.02;7.40;;;5.20;99.90;;;;;;4916785;29;20214;-65
2024/02/28 09:20:13;;;;;;;11.77;8.38;;;5.30;99.90;;;;;;4912322;29;20214;-65
2024/02/28 09:22:40;;;;;;;15.77;8.93;;;5.30;99.90;;;;;;4914981;29;20207;-65
2024/02/28 09:25:08;;;;;;;17.25;10.07;;;5.30;99.90;;;;;;4911830;29;20264;-65
2024/02/28 09:27:35;;;;;;;14.60;8.55;;;5.30;99.90;;;;;;4915914;29;20218;-65
2024/02/28 09:30:02;;;;;;;16.30;9.73;;;5.40;99.90;;;;;;4915837;29;20241;-65
2024/02/28 09:32:28;;;;;;;14.18;8.75;;;5.40;99.90;;;;;;4913418;29;20230;-66
2024/02/28 09:34:55;;;;;;;20.17;9.10;;;5.50;99.90;;;;;;4910506;29;20236;-65
2024/02/28 09:37:24;;;;;;;12.70;7.13;;;5.50;99.90;;;;;;4914826;29;20215;-65
2024/02/28 09:39:52;;;;;;;17.58;9.55;;;5.50;99.90;;;;;;4914636;29;20218;-65
2024/02/28 09:42:19;;;;;;;16.88;8.60;;;5.50;99.90;;;;;;4912301;29;20274;-65
2024/02/28 09:44:46;;;;;;;15.70;8.80;;;5.60;99.90;;;;;;4913567;29;20223;-65
2024/02/28 09:47:14;;;;;;;13.00;7.85;;;5.60;99.90;;;;;;4909480;29;20218;-65
2024/02/28 09:49:43;;;;;;;14.52;8.50;;;5.60;99.90;;;;;;4910095;29;20207;-65
2024/02/28 09:52:09;;;;;;;13.82;8.70;;;5.70;99.90;;;;;;4910772;29;20803;-71
2024/02/28 09:54:38;;;;;;;13.50;8.05;;;5.90;99.90;;;;;;4913832;29;20837;-65
2024/02/28 09:57:06;;;;;;;30.38;13.80;;;6.00;99.90;;;;;;4907380;29;20231;-65
2024/02/28 09:59:33;;;;;;;17.17;10.20;;;6.20;99.90;;;;;;4903815;29;20215;-65
2024/02/28 10:02:02;;;;;;;16.92;10.60;;;6.50;99.90;;;;;;4906603;29;20338;-65
2024/02/28 10:04:29;;;;;;;13.95;9.50;;;6.70;99.90;;;;;;4906017;29;20232;-65
2024/02/28 10:06:55;;;;;;;38.42;14.35;;;6.80;99.90;;;;;;4908740;29;21656;-64
2024/02/28 10:09:22;;;;;;;30.30;17.02;;;6.90;99.90;;;;;;4909116;29;20219;-64
2024/02/28 10:11:50;;;;;;;25.27;13.55;;;7.00;99.90;;;;;;4915116;29;20226;-64
2024/02/28 10:14:19;;;;;;;26.40;15.13;;;7.00;99.90;;;;;;4910030;29;20571;-64
2024/02/28 10:16:46;;;;;;;14.35;9.50;;;7.00;99.90;;;;;;4911311;29;20215;-64
2024/02/28 10:19:13;;;;;;;15.77;9.43;;;7.10;99.90;;;;;;4910354;29;20775;-64
2024/02/28 10:21:39;;;;;;;19.77;10.90;;;7.10;99.90;;;;;;4908706;29;20486;-68
2024/02/28 10:24:06;;;;;;;27.15;15.40;;;7.20;99.90;;;;;;4913664;29;20236;-69
2024/02/28 10:26:38;;;;;;;16.25;9.43;;;7.20;99.90;;;;;;4911811;29;20221;-70
2024/02/28 10:29:06;;;;;;;13.52;7.88;;;7.30;99.90;;;;;;4914374;29;20217;-70
2024/02/28 10:31:33;;;;;;;14.80;8.80;;;7.40;99.90;;;;;;4913052;29;20230;-70
2024/02/28 10:34:02;;;;;;;17.27;9.52;;;7.50;99.90;;;;;;4913828;29;20297;-70
2024/02/28 10:36:32;;;;;;;22.30;12.23;;;7.60;99.90;;;;;;4912051;29;20232;-70
2024/02/28 10:39:00;;;;;;;23.17;14.55;;;7.80;99.90;;;;;;4914409;29;20216;-70
2024/02/28 10:41:28;;;;;;;26.80;17.15;;;7.80;99.90;;;;;;4913177;29;20237;-70
2024/02/28 10:43:55;;;;;;;16.67;10.00;;;8.00;99.90;;;;;;4912576;29;20569;-71
2024/02/28 10:46:23;;;;;;;11.95;7.88;;;8.00;99.90;;;;;;4911948;29;20229;-71
2024/02/28 10:48:52;;;;;;;13.02;7.10;;;8.10;99.90;;;;;;4914403;29;20210;-71
2024/02/28 10:51:24;;;;;;;16.42;9.35;;;8.30;99.90;;;;;;4913835;29;20237;-71
2024/02/28 10:53:56;;;;;;;27.17;16.42;;;8.40;99.90;;;;;;4914304;29;20214;-71
2024/02/28 10:56:23;;;;;;;13.68;9.85;;;8.50;99.90;;;;;;4914604;29;20213;-71
2024/02/28 10:58:53;;;;;;;12.77;9.80;;;8.50;99.90;;;;;;4915238;29;20216;-71
2024/02/28 11:01:20;;;;;;;23.45;13.35;;;8.60;99.90;;;;;;4914751;29;20499;-70
2024/02/28 11:03:49;;;;;;;15.82;10.02;;;8.80;99.90;;;;;;4913565;29;20207;-71
2024/02/28 11:06:21;;;;;;;19.52;10.25;;;8.70;99.90;;;;;;4913998;29;20211;-71
2024/02/28 11:08:48;;;;;;;13.02;8.18;;;8.80;99.90;;;;;;4903820;29;20254;-71
2024/02/28 11:11:17;;;;;;;11.77;8.93;;;8.80;99.90;;;;;;4909350;29;20605;-71
2024/02/28 11:13:53;;;;;;;11.88;8.07;;;8.90;99.90;;;;;;4912703;29;20534;-71
2024/02/28 11:16:27;;;;;;;12.73;7.53;;;9.00;99.90;;;;;;4911621;29;20231;-71
2024/02/28 11:18:57;;;;;;;13.48;7.05;;;9.00;99.90;;;;;;4912930;29;20228;-72
2024/02/28 11:21:27;;;;;;;15.40;8.80;;;9.00;99.90;;;;;;4899928;29;20226;-72
2024/02/28 11:23:58;;;;;;;14.65;8.32;;;9.00;99.90;;;;;;4913105;29;20466;-71
2024/02/28 11:26:26;;;;;;;16.42;8.55;;;9.00;99.90;;;;;;4913330;29;20220;-69
2024/02/28 11:28:52;;;;;;;12.55;7.97;;;8.90;99.90;;;;;;4913210;29;20211;-69
2024/02/28 11:31:19;;;;;;;12.77;8.23;;;8.90;99.90;;;;;;4912335;29;20230;-69
2024/02/28 11:33:46;;;;;;;12.82;8.10;;;8.90;99.90;;;;;;4911607;29;20730;-69
2024/02/28 11:36:15;;;;;;;16.10;9.00;;;8.80;99.90;;;;;;4912073;29;20281;-69
2024/02/28 11:38:42;;;;;;;11.77;7.28;;;8.80;99.90;;;;;;4910051;29;20218;-69
2024/02/28 11:41:09;;;;;;;14.88;10.93;;;8.90;99.90;;;;;;4908721;29;20238;-70
2024/02/28 11:43:36;;;;;;;13.70;8.57;;;8.90;99.90;;;;;;4913594;29;20661;-70
2024/02/28 11:46:04;;;;;;;13.88;9.20;;;8.90;99.90;;;;;;4912341;29;20245;-70
2024/02/28 11:48:32;;;;;;;12.25;8.23;;;8.90;99.90;;;;;;4913817;29;20557;-70
2024/02/28 11:50:59;;;;;;;13.05;8.20;;;8.90;99.90;;;;;;4910399;29;20669;-69
2024/02/28 11:53:27;;;;;;;15.57;8.13;;;8.80;99.90;;;;;;4912540;29;20219;-70
2024/02/28 11:55:55;;;;;;;13.25;7.50;;;8.80;99.90;;;;;;4911752;29;20202;-70
2024/02/28 11:58:22;;;;;;;11.43;6.93;;;8.90;99.90;;;;;;4913219;29;20210;-70
2024/02/28 12:00:50;;;;;;;9.82;6.72;;;9.00;99.90;;;;;;4909688;29;20379;-70
2024/02/28 12:03:21;;;;;;;14.05;9.38;;;9.00;99.90;;;;;;4912445;29;20648;-70
2024/02/28 12:05:48;;;;;;;14.63;8.20;;;9.10;99.90;;;;;;4910975;29;20295;-70
2024/02/28 12:08:15;;;;;;;14.00;7.60;;;9.10;99.90;;;;;;4912075;29;20211;-70
2024/02/28 12:10:43;;;;;;;13.93;8.27;;;9.10;99.90;;;;;;4911738;29;20230;-70
2024/02/28 12:13:11;;;;;;;8.27;5.60;;;9.20;99.90;;;;;;4912717;29;20222;-69
2024/02/28 12:15:41;;;;;;;11.70;6.78;;;9.20;99.90;;;;;;4912372;29;20742;-70
2024/02/28 12:18:09;;;;;;;13.00;7.22;;;9.20;99.90;;;;;;4912965;29;20293;-68
2024/02/28 12:20:37;;;;;;;14.00;8.90;;;9.30;99.90;;;;;;4909474;29;20286;-70
2024/02/28 12:23:05;;;;;;;13.50;8.68;;;9.30;99.90;;;;;;4909616;29;20211;-70
2024/02/28 12:25:31;;;;;;;17.15;8.10;;;9.30;99.90;;;;;;4909302;29;20226;-70
2024/02/28 12:27:59;;;;;;;15.20;8.87;;;9.30;99.90;;;;;;4909507;29;20292;-70
2024/02/28 12:30:26;;;;;;;15.98;8.98;;;9.20;99.90;;;;;;4906547;29;20477;-70
2024/02/28 12:32:53;;;;;;;13.73;7.38;;;9.10;99.90;;;;;;4909843;29;20638;-70
2024/02/28 12:35:20;;;;;;;16.27;8.80;;;9.10;99.90;;;;;;4912133;29;20214;-71
2024/02/28 12:37:48;;;;;;;12.98;6.55;;;9.00;99.90;;;;;;4908189;29;20215;-71
2024/02/28 12:40:17;;;;;;;12.70;8.02;;;8.90;99.90;;;;;;4907420;29;20225;-70
2024/02/28 12:42:44;;;;;;;11.60;7.43;;;8.90;99.90;;;;;;4912874;29;20229;-70
2024/02/28 12:45:12;;;;;;;13.05;7.35;;;8.80;99.90;;;;;;4903695;29;20613;-71
2024/02/28 12:47:39;;;;;;;13.15;7.70;;;8.80;99.90;;;;;;4915460;29;20218;-71
2024/02/28 12:50:08;;;;;;;19.30;10.77;;;8.90;99.90;;;;;;4914529;29;20573;-70
2024/02/28 12:52:35;;;;;;;11.23;7.75;;;8.90;99.90;;;;;;4914423;29;20256;-70
2024/02/28 12:55:02;;;;;;;19.67;9.45;;;8.90;99.90;;;;;;4914489;29;20573;-70
2024/02/28 12:57:29;;;;;;;11.75;8.15;;;8.90;99.90;;;;;;4916341;29;20242;-70
2024/02/28 12:59:56;;;;;;;12.30;7.50;;;9.00;99.90;;;;;;4912437;29;20734;-69
2024/02/28 13:02:24;;;;;;;14.93;8.02;;;9.20;99.90;;;;;;4910862;29;20243;-71
2024/02/28 13:04:51;;;;;;;10.38;6.88;;;9.30;99.90;;;;;;4910862;29;20231;-71
2024/02/28 13:07:19;;;;;;;10.27;5.35;;;9.30;99.90;;;;;;4911960;29;20233;-72
2024/02/28 13:09:46;;;;;;;8.10;6.93;;;9.30;99.90;;;;;;4911332;29;20207;-72
2024/02/28 13:12:13;;;;;;;7.43;5.60;;;9.30;99.90;;;;;;4907033;29;20228;-71
2024/02/28 13:14:39;;;;;;;7.88;5.18;;;9.30;99.90;;;;;;4914255;29;20203;-71
2024/02/28 13:17:07;;;;;;;6.90;4.95;;;9.20;99.90;;;;;;4915145;29;20210;-73
2024/02/28 13:19:35;;;;;;;5.38;4.85;;;9.20;99.90;;;;;;4913564;29;20302;-70
2024/02/28 13:22:02;;;;;;;6.28;5.65;;;9.10;99.90;;;;;;4911875;29;20258;-72
2024/02/28 13:24:29;;;;;;;12.50;6.18;;;9.10;99.90;;;;;;4915486;29;20207;-72
2024/02/28 13:26:55;;;;;;;12.60;7.43;;;9.20;99.90;;;;;;4914666;29;20306;-71
2024/02/28 13:29:22;;;;;;;9.48;6.68;;;9.10;99.90;;;;;;4913120;29;20207;-71
2024/02/28 13:31:49;;;;;;;7.25;5.32;;;9.20;99.90;;;;;;4914696;29;20226;-71
2024/02/28 13:34:15;;;;;;;13.18;8.45;;;9.30;99.90;;;;;;4913613;29;20219;-71
2024/02/28 13:36:44;;;;;;;13.35;8.45;;;9.40;99.90;;;;;;4915917;29;20210;-71
2024/02/28 13:39:11;;;;;;;7.10;5.35;;;9.50;99.90;;;;;;4913552;29;20677;-71
2024/02/28 13:41:39;;;;;;;9.73;8.77;;;9.60;99.90;;;;;;4914192;29;20236;-71
2024/02/28 13:44:07;;;;;;;7.38;5.65;;;9.70;99.90;;;;;;4915877;29;20465;-71
2024/02/28 13:46:34;;;;;;;13.77;6.10;;;9.80;99.90;;;;;;4915733;29;20233;-71
2024/02/28 13:49:01;;;;;;;9.10;5.87;;;9.80;99.90;;;;;;4915703;29;20465;-71
2024/02/28 13:51:27;;;;;;;11.63;7.30;;;9.90;99.90;;;;;;4913253;29;20525;-71
2024/02/28 13:53:55;;;;;;;6.40;5.28;;;9.90;99.90;;;;;;4915619;29;20848;-71
2024/02/28 13:56:22;;;;;;;5.33;4.27;;;9.80;99.90;;;;;;4912020;29;20215;-71
2024/02/28 13:58:49;;;;;;;8.97;5.93;;;9.80;99.90;;;;;;4915232;29;20478;-71
2024/02/28 14:01:16;;;;;;;18.90;9.23;;;9.90;99.90;;;;;;4914233;29;20990;-71
2024/02/28 14:03:42;;;;;;;8.10;5.93;;;9.90;99.90;;;;;;4914647;29;20800;-71
2024/02/28 14:06:09;;;;;;;8.93;5.57;;;9.90;99.90;;;;;;4913933;29;20232;-70
2024/02/28 14:08:36;;;;;;;11.55;7.38;;;9.80;99.90;;;;;;4913298;29;20210;-70
2024/02/28 14:11:04;;;;;;;15.40;7.67;;;9.70;99.90;;;;;;4911890;29;20590;-70
2024/02/28 14:13:31;;;;;;;10.25;7.20;;;9.70;99.90;;;;;;4914618;29;20618;-70
2024/02/28 14:15:58;;;;;;;7.83;5.17;;;9.90;99.90;;;;;;4910000;29;20220;-70
2024/02/28 14:18:24;;;;;;;5.68;5.07;;;10.00;99.90;;;;;;4914944;29;20479;-70
2024/02/28 14:20:51;;;;;;;8.83;5.80;;;10.10;99.90;;;;;;4914916;29;20576;-71
2024/02/28 14:23:18;;;;;;;10.32;5.40;;;10.10;99.90;;;;;;4911641;29;20478;-71
2024/02/28 14:25:45;;;;;;;6.63;4.53;;;10.10;99.90;;;;;;4911764;29;20290;-70
2024/02/28 14:28:13;;;;;;;9.05;5.88;;;10.10;99.90;;;;;;4911071;29;20855;-71
2024/02/28 14:30:42;;;;;;;11.37;7.43;;;10.10;99.90;;;;;;4911490;29;20226;-71
2024/02/28 14:33:09;;;;;;;15.80;10.10;;;10.20;99.90;;;;;;4915244;29;21020;-71
2024/02/28 14:35:38;;;;;;;7.23;6.50;;;10.20;99.90;;;;;;4909792;29;20463;-71
2024/02/28 14:38:06;;;;;;;7.87;5.53;;;10.20;99.90;;;;;;4913189;29;20479;-71
2024/02/28 14:40:33;;;;;;;10.88;6.85;;;10.10;99.90;;;;;;4910594;29;20472;-71
2024/02/28 14:43:00;;;;;;;11.33;7.00;;;10.10;99.90;;;;;;4910679;29;20678;-71
2024/02/28 14:45:28;;;;;;;10.00;5.85;;;10.10;99.90;;;;;;4909819;29;20495;-70
2024/02/28 14:47:55;;;;;;;9.10;8.05;;;10.00;99.90;;;;;;4914908;29;20219;-71
2024/02/28 14:50:21;;;;;;;13.82;7.88;;;10.00;99.90;;;;;;4911224;29;20214;-71
2024/02/28 14:52:48;;;;;;;17.17;8.05;;;10.00;99.90;;;;;;4908847;29;20640;-71
2024/02/28 14:55:15;;;;;;;18.00;8.85;;;10.00;99.90;;;;;;4912407;29;20218;-71
2024/02/28 14:57:42;;;;;;;11.07;6.80;;;9.90;99.90;;;;;;4913976;29;20203;-71
2024/02/28 15:00:13;;;;;;;13.10;7.80;;;10.00;99.90;;;;;;4906146;29;20213;-71
2024/02/28 15:02:41;;;;;;;12.93;8.13;;;9.90;99.90;;;;;;4911323;29;20483;-69
2024/02/28 15:05:08;;;;;;;10.15;6.43;;;9.90;99.90;;;;;;4912110;29;20482;-69
2024/02/28 15:07:36;;;;;;;15.48;7.85;;;9.80;99.90;;;;;;4911439;29;20582;-70
2024/02/28 15:10:04;;;;;;;9.35;6.93;;;9.70;99.90;;;;;;4909445;29;20206;-70
2024/02/28 15:12:32;;;;;;;11.20;8.40;;;9.60;99.90;;;;;;4915619;29;20293;-70
2024/02/28 15:14:59;;;;;;;17.48;8.88;;;9.50;99.90;;;;;;4915873;29;20214;-70
2024/02/28 15:17:26;;;;;;;10.57;6.88;;;9.50;99.90;;;;;;4909781;29;20243;-71
2024/02/28 15:19:54;;;;;;;8.80;7.05;;;9.40;99.90;;;;;;4914886;29;20214;-70
2024/02/28 15:22:21;;;;;;;10.00;6.43;;;9.40;99.90;;;;;;4913810;29;20226;-70
2024/02/28 15:24:48;;;;;;;10.25;7.25;;;9.30;99.90;;;;;;4908985;29;20215;-71
2024/02/28 15:27:14;;;;;;;13.43;7.07;;;9.20;99.90;;;;;;4914180;29;20234;-70
2024/02/28 15:29:41;;;;;;;11.68;7.63;;;9.10;99.90;;;;;;4913664;29;20674;-70
2024/02/28 15:32:08;;;;;;;15.68;8.55;;;9.00;99.90;;;;;;4909308;29;20628;-69
2024/02/28 15:34:35;;;;;;;17.50;8.70;;;8.90;99.90;;;;;;4908121;29;20215;-69
2024/02/28 15:37:02;;;;;;;11.40;8.55;;;8.80;99.90;;;;;;4912635;29;20218;-69
2024/02/28 15:39:29;;;;;;;14.00;8.68;;;8.80;99.90;;;;;;4911743;29;20227;-70
2024/02/28 15:41:56;;;;;;;12.70;8.10;;;8.70;99.90;;;;;;4913091;29;20241;-70
2024/02/28 15:44:23;;;;;;;15.80;9.60;;;8.70;99.90;;;;;;4910518;29;20565;-70
2024/02/28 15:46:49;;;;;;;17.48;7.72;;;8.60;99.90;;;;;;4913381;29;20226;-71
2024/02/28 15:49:18;;;;;;;15.65;9.02;;;8.50;99.90;;;;;;4913439;29;20214;-70
2024/02/28 15:51:45;;;;;;;16.90;8.35;;;8.50;99.90;;;;;;4907567;29;20257;-70
2024/02/28 15:54:13;;;;;;;13.65;8.63;;;8.40;99.90;;;;;;4904340;29;20293;-70
2024/02/28 15:56:40;;;;;;;18.75;7.97;;;8.40;99.90;;;;;;4907560;29;20212;-70
2024/02/28 15:59:06;;;;;;;13.05;8.63;;;8.30;99.90;;;;;;4909411;29;20214;-70
2024/02/28 16:01:33;;;;;;;13.73;9.18;;;8.30;99.90;;;;;;4909719;29;20245;-70
2024/02/28 16:04:00;;;;;;;12.93;7.53;;;8.30;99.90;;;;;;4906834;29;20285;-70
2024/02/28 16:06:27;;;;;;;13.38;8.15;;;8.30;99.90;;;;;;4909062;29;20592;-70
2024/02/28 16:08:53;;;;;;;16.95;9.45;;;8.20;99.90;;;;;;4906573;29;20216;-70
2024/02/28 16:11:21;;;;;;;13.90;9.45;;;8.20;99.90;;;;;;4907201;29;20229;-70
2024/02/28 16:13:49;;;;;;;18.90;10.63;;;8.10;99.90;;;;;;4911731;29;20218;-70
2024/02/28 16:16:16;;;;;;;14.35;9.55;;;8.10;99.90;;;;;;4909866;29;20858;-70
2024/02/28 16:18:43;;;;;;;14.32;8.52;;;8.00;99.90;;;;;;4912187;29;20244;-70
2024/02/28 16:21:10;;;;;;;18.80;10.40;;;8.00;99.90;;;;;;4914891;29;20305;-70
2024/02/28 16:23:36;;;;;;;28.25;17.30;;;7.90;99.90;;;;;;4914964;29;20952;-71
2024/02/28 16:26:04;;;;;;;19.38;9.43;;;7.90;99.90;;;;;;4918571;29;20259;-71
2024/02/28 16:28:32;;;;;;;12.55;8.48;;;7.80;99.90;;;;;;4919036;29;20585;-71
2024/02/28 16:30:59;;;;;;;19.80;11.32;;;7.80;99.90;;;;;;4919067;29;20234;-71
2024/02/28 16:33:26;;;;;;;16.20;8.73;;;7.80;99.90;;;;;;4917941;29;20308;-71
2024/02/28 16:35:53;;;;;;;26.65;13.15;;;7.70;99.90;;;;;;4917172;29;20565;-70
2024/02/28 16:38:19;;;;;;;17.52;8.25;;;7.70;99.90;;;;;;4910923;29;20211;-69
2024/02/28 16:40:46;;;;;;;13.85;9.15;;;7.60;99.90;;;;;;4912427;29;20237;-68
2024/02/28 16:43:13;;;;;;;13.43;8.63;;;7.60;99.90;;;;;;4918352;29;20211;-70
2024/02/28 16:45:41;;;;;;;11.75;7.40;;;7.50;99.90;;;;;;4915811;29;20227;-70
2024/02/28 16:48:09;;;;;;;12.18;7.32;;;7.50;99.90;;;;;;4914443;29;20576;-70
2024/02/28 16:50:35;;;;;;;22.15;8.38;;;7.40;99.90;;;;;;4911936;29;20235;-70
2024/02/28 16:53:02;;;;;;;10.32;6.78;;;7.40;99.90;;;;;;4905035;29;20211;-70
2024/02/28 16:55:29;;;;;;;10.88;6.40;;;7.30;99.90;;;;;;4914754;29;20211;-70
2024/02/28 16:57:56;;;;;;;10.10;7.20;;;7.30;99.90;;;;;;4913830;29;20211;-70
2024/02/28 17:00:23;;;;;;;12.63;5.80;;;7.20;99.90;;;;;;4914984;29;20210;-71
2024/02/28 17:02:51;;;;;;;11.95;5.93;;;7.20;99.90;;;;;;4916996;29;20277;-70
2024/02/28 17:05:18;;;;;;;10.65;7.75;;;7.20;99.90;;;;;;4914727;29;20210;-71
2024/02/28 17:07:45;;;;;;;15.00;6.50;;;7.10;99.90;;;;;;4917995;29;20238;-71
2024/02/28 17:10:12;;;;;;;13.73;7.88;;;7.10;99.90;;;;;;4918170;29;20211;-71
2024/02/28 17:12:39;;;;;;;15.80;8.85;;;7.10;99.90;;;;;;4915717;29;20231;-71
2024/02/28 17:15:06;;;;;;;16.05;9.10;;;7.00;99.90;;;;;;4918542;29;20214;-70
2024/02/28 17:17:33;;;;;;;14.57;6.82;;;7.00;99.90;;;;;;4917984;29;20211;-71
2024/02/28 17:20:02;;;;;;;12.38;8.63;;;7.00;99.90;;;;;;4918481;29;20274;-71
2024/02/28 17:22:30;;;;;;;18.65;8.57;;;7.00;99.90;;;;;;4917639;29;20853;-71
2024/02/28 17:24:57;;;;;;;12.27;7.20;;;6.90;99.90;;;;;;4916964;29;20234;-70
2024/02/28 17:27:24;;;;;;;14.20;8.48;;;6.90;99.90;;;;;;4917211;29;20235;-70
2024/02/28 17:29:50;;;;;;;11.32;6.70;;;6.90;99.90;;;;;;4916820;29;20601;-70
2024/02/28 17:32:17;;;;;;;9.43;5.72;;;6.90;99.90;;;;;;4912486;29;20679;-71
2024/02/28 17:34:50;;;;;;;12.23;6.15;;;7.00;99.90;;;;;;4913600;29;20298;-70
2024/02/28 17:37:20;;;;;;;11.63;6.90;;;7.00;99.90;;;;;;4914729;29;20211;-69
2024/02/28 17:39:47;;;;;;;12.52;8.73;;;7.00;99.90;;;;;;4910716;29;20223;-68
2024/02/28 17:42:13;;;;;;;9.15;5.43;;;7.00;99.90;;;;;;4913791;29;20252;-69
2024/02/28 17:44:40;;;;;;;17.90;6.55;;;7.00;99.90;;;;;;4913488;29;20219;-69
2024/02/28 17:47:07;;;;;;;18.00;8.70;;;6.90;99.90;;;;;;4913116;29;20236;-68
2024/02/28 17:49:36;;;;;;;9.70;6.85;;;6.90;99.90;;;;;;4911105;29;20208;-69